Time;durP1;ratioP1;P1;durP2;ratioP2;P2;SDS_P1;SDS_P2;PMS_P1;PMS_P2;Temp;Humidity;BMP_temperature;BMP_pressure;BME280_temperature;BME280_humidity;BME280_pressure;Samples;Min_cycle;Max_cycle;Signal;HPM_P1;HPM_P2
2023/02/13 00:01:58;;;;;;;28.10;12.38;;;8.60;99.90;;;;;;5029534;28;20037;-39
2023/02/13 00:04:24;;;;;;;33.17;13.38;;;8.60;99.90;;;;;;5032550;28;20473;-39
2023/02/13 00:06:49;;;;;;;28.90;14.40;;;8.60;99.90;;;;;;5030094;28;20047;-39
2023/02/13 00:09:15;;;;;;;27.88;12.90;;;8.60;99.90;;;;;;5029096;28;20036;-37
2023/02/13 00:11:41;;;;;;;28.77;12.35;;;8.60;99.90;;;;;;5029173;28;20026;-39
2023/02/13 00:14:07;;;;;;;30.55;13.40;;;8.60;99.90;;;;;;5029192;28;20064;-40
2023/02/13 00:16:33;;;;;;;34.13;14.25;;;8.60;99.90;;;;;;5030407;28;20589;-39
2023/02/13 00:18:58;;;;;;;29.15;13.40;;;8.60;99.90;;;;;;5025370;28;20047;-39
2023/02/13 00:21:24;;;;;;;28.75;13.98;;;8.70;99.90;;;;;;5021987;28;20543;-40
2023/02/13 00:23:50;;;;;;;29.80;13.90;;;8.70;99.90;;;;;;5023975;28;20029;-39
2023/02/13 00:26:16;;;;;;;29.45;14.48;;;8.70;99.90;;;;;;5028425;28;20079;-40
2023/02/13 00:28:43;;;;;;;31.15;13.52;;;8.70;99.90;;;;;;5021399;28;20502;-39
2023/02/13 00:31:11;;;;;;;33.97;13.88;;;8.70;99.90;;;;;;5016285;28;20049;-39
2023/02/13 00:33:37;;;;;;;28.60;13.80;;;8.60;99.90;;;;;;5018531;28;20386;-33
2023/02/13 00:36:06;;;;;;;32.50;13.52;;;8.60;99.90;;;;;;5024679;28;20025;-39
2023/02/13 00:38:32;;;;;;;33.20;13.07;;;8.60;99.90;;;;;;5027863;28;20039;-39
2023/02/13 00:40:58;;;;;;;33.55;13.57;;;8.60;99.90;;;;;;5030573;28;20028;-39
2023/02/13 00:43:23;;;;;;;28.08;12.05;;;8.60;99.90;;;;;;5029723;28;20482;-40
2023/02/13 00:45:49;;;;;;;31.55;13.02;;;8.60;99.90;;;;;;5025941;28;20029;-35
2023/02/13 00:48:14;;;;;;;30.92;13.18;;;8.60;99.90;;;;;;5028176;28;20026;-40
2023/02/13 00:50:40;;;;;;;31.98;12.32;;;8.70;99.90;;;;;;5023664;28;20053;-39
2023/02/13 00:53:06;;;;;;;30.23;12.88;;;8.70;99.90;;;;;;5021315;28;20026;-41
2023/02/13 00:55:32;;;;;;;29.80;13.68;;;8.70;99.90;;;;;;5022421;28;20443;-34
2023/02/13 00:57:58;;;;;;;28.73;12.20;;;8.70;99.90;;;;;;5031668;28;20040;-37
2023/02/13 01:00:24;;;;;;;34.58;13.90;;;8.70;99.90;;;;;;5025159;28;20022;-37
2023/02/13 01:02:49;;;;;;;31.77;12.77;;;8.70;99.90;;;;;;5029536;28;20456;-32
2023/02/13 01:05:15;;;;;;;34.60;13.82;;;8.70;99.90;;;;;;5030126;28;20033;-36
2023/02/13 01:07:40;;;;;;;30.38;13.48;;;8.60;99.90;;;;;;5031128;28;20493;-35
2023/02/13 01:10:06;;;;;;;31.05;11.40;;;8.70;99.90;;;;;;5023666;28;20112;-36
2023/02/13 01:12:32;;;;;;;26.45;12.43;;;8.70;99.90;;;;;;5031731;28;20033;-38
2023/02/13 01:14:58;;;;;;;29.52;12.43;;;8.70;99.90;;;;;;5026658;28;20022;-36
2023/02/13 01:17:23;;;;;;;31.63;13.43;;;8.70;99.90;;;;;;5019257;28;20026;-38
2023/02/13 01:19:49;;;;;;;26.95;11.77;;;8.60;99.90;;;;;;5031548;28;20025;-33
2023/02/13 01:22:14;;;;;;;36.25;13.27;;;8.70;99.90;;;;;;5027463;28;20670;-34
2023/02/13 01:24:40;;;;;;;29.98;12.13;;;8.70;99.90;;;;;;5031120;28;20033;-37
2023/02/13 01:27:06;;;;;;;29.60;13.38;;;8.70;99.90;;;;;;5030750;28;20037;-37
2023/02/13 01:29:31;;;;;;;27.92;13.38;;;8.70;99.90;;;;;;5016719;28;20076;-38
2023/02/13 01:31:57;;;;;;;35.35;13.13;;;8.70;99.90;;;;;;5032041;28;20033;-33
2023/02/13 01:34:23;;;;;;;33.53;12.55;;;8.70;99.90;;;;;;5035096;28;20497;-34
2023/02/13 01:36:49;;;;;;;31.77;13.45;;;8.70;99.90;;;;;;5015120;28;20030;-36
2023/02/13 01:39:14;;;;;;;36.17;12.95;;;8.60;99.90;;;;;;5026565;28;20509;-35
2023/02/13 01:41:40;;;;;;;30.10;12.50;;;8.60;99.90;;;;;;5022621;28;20026;-40
2023/02/13 01:44:45;;;;;;;27.83;12.73;;;8.50;99.90;;;;;;5033887;28;20037;-37
2023/02/13 01:47:14;;;;;;;30.88;11.45;;;8.60;99.90;;;;;;5032399;28;20041;-37
2023/02/13 01:49:40;;;;;;;26.77;11.55;;;8.60;99.90;;;;;;5033668;28;20537;-36
2023/02/13 01:52:08;;;;;;;24.60;11.90;;;8.60;99.90;;;;;;5021688;28;20474;-38
2023/02/13 01:54:35;;;;;;;29.25;11.32;;;8.60;99.90;;;;;;5022359;28;20481;-38
2023/02/13 01:57:15;;;;;;;26.23;12.30;;;8.60;99.90;;;;;;5034400;28;20485;-36
2023/02/13 02:00:08;;;;;;;27.52;11.77;;;8.60;99.90;;;;;;5034387;28;20087;-37
2023/02/13 02:02:38;;;;;;;29.00;12.18;;;8.60;99.90;;;;;;5031311;28;20368;-37
2023/02/13 02:05:05;;;;;;;28.75;12.63;;;8.60;99.90;;;;;;5022854;28;20036;-37
2023/02/13 02:07:33;;;;;;;26.80;11.98;;;8.60;99.90;;;;;;5028883;28;20036;-38
2023/02/13 02:10:03;;;;;;;27.80;11.75;;;8.70;99.90;;;;;;5034144;28;20112;-36
2023/02/13 02:12:34;;;;;;;27.52;11.30;;;8.60;99.90;;;;;;5031298;28;20033;-38
2023/02/13 02:15:02;;;;;;;27.65;10.60;;;8.50;99.90;;;;;;5032980;28;20036;-32
2023/02/13 02:17:28;;;;;;;24.88;10.98;;;8.50;99.90;;;;;;5032754;28;20037;-36
2023/02/13 02:20:19;;;;;;;25.40;10.90;;;8.50;99.90;;;;;;5032781;28;20100;-37
2023/02/13 02:23:00;;;;;;;25.48;10.95;;;8.50;99.90;;;;;;5014837;28;20394;-35
2023/02/13 02:25:45;;;;;;;26.60;11.00;;;8.50;99.90;;;;;;5025524;28;20429;-38
2023/02/13 02:28:38;;;;;;;29.17;11.23;;;8.50;99.90;;;;;;5028655;28;20041;-48
2023/02/13 02:31:48;;;;;;;24.92;10.35;;;8.50;99.90;;;;;;5032519;28;20033;-48
2023/02/13 02:34:35;;;;;;;24.58;9.75;;;8.50;99.90;;;;;;5032125;28;20047;-48
2023/02/13 02:37:35;;;;;;;21.08;10.13;;;8.50;99.90;;;;;;5031095;28;20035;-48
2023/02/13 02:40:14;;;;;;;25.30;10.90;;;8.50;99.90;;;;;;5033601;28;20040;-48
2023/02/13 02:42:52;;;;;;;21.67;9.98;;;8.50;99.90;;;;;;5032782;28;20030;-48
2023/02/13 02:46:12;;;;;;;23.48;9.82;;;8.50;99.90;;;;;;5024235;28;20041;-48
2023/02/13 02:52:01;;;;;;;27.42;10.00;;;8.60;99.90;;;;;;4987713;28;20038;-46
2023/02/13 02:55:14;;;;;;;22.95;10.35;;;8.50;99.90;;;;;;5030837;28;20063;-48
2023/02/13 03:06:09;;;;;;;28.17;11.00;;;8.60;99.90;;;;;;5035383;28;20026;-47
2023/02/13 03:14:01;;;;;;;26.77;10.07;;;8.50;99.90;;;;;;5015142;28;20049;-45
2023/02/13 03:22:20;;;;;;;21.52;8.90;;;8.60;99.90;;;;;;5033121;28;20072;-37
2023/02/13 03:25:04;;;;;;;25.55;10.02;;;8.50;99.90;;;;;;5018333;28;20026;-35
2023/02/13 03:30:55;;;;;;;28.55;10.70;;;8.50;99.90;;;;;;5012505;28;20140;-35
2023/02/13 03:33:39;;;;;;;27.40;10.32;;;8.50;99.90;;;;;;5024091;28;20512;-36
2023/02/13 03:39:43;;;;;;;23.38;10.00;;;8.50;99.90;;;;;;5030572;28;20084;-47
2023/02/13 03:42:38;;;;;;;34.25;10.55;;;8.60;99.90;;;;;;5030084;28;20513;-48
2023/02/13 03:51:01;;;;;;;18.05;8.38;;;8.50;99.90;;;;;;5026325;28;20027;-47
2023/02/13 03:53:30;;;;;;;21.13;9.93;;;8.50;99.90;;;;;;5014447;28;20038;-50
2023/02/13 04:01:35;;;;;;;24.17;10.02;;;8.60;99.90;;;;;;5013010;28;20120;-48
2023/02/13 04:04:26;;;;;;;19.80;9.07;;;8.60;99.90;;;;;;5018886;28;20034;-47
2023/02/13 04:06:58;;;;;;;24.75;10.55;;;8.60;99.90;;;;;;5027491;28;20037;-47
2023/02/13 04:09:26;;;;;;;21.77;9.30;;;8.50;99.90;;;;;;5031139;28;20036;-48
2023/02/13 04:11:52;;;;;;;;;;;8.60;99.90;;;;;;5020503;28;20035;-46
2023/02/13 04:14:26;;;;;;;26.92;9.77;;;8.50;99.90;;;;;;5030735;28;20277;-36
2023/02/13 04:16:58;;;;;;;21.90;9.55;;;8.50;99.90;;;;;;5029320;28;20479;-35
2023/02/13 04:19:25;;;;;;;28.33;11.43;;;8.50;99.90;;;;;;5028860;28;20017;-35
2023/02/13 04:21:56;;;;;;;25.95;10.48;;;8.60;99.90;;;;;;5034658;28;20074;-37
2023/02/13 04:24:22;;;;;;;22.45;10.25;;;8.60;99.90;;;;;;5016698;28;20383;-31
2023/02/13 04:26:47;;;;;;;25.70;10.45;;;8.60;99.90;;;;;;5031744;28;20045;-33
2023/02/13 04:29:13;;;;;;;28.05;11.48;;;8.60;99.90;;;;;;5033589;28;20533;-34
2023/02/13 04:31:39;;;;;;;24.85;9.73;;;8.50;99.90;;;;;;5034434;28;20042;-35
2023/02/13 04:34:05;;;;;;;25.13;10.82;;;8.50;99.90;;;;;;5034630;28;20401;-36
2023/02/13 04:36:30;;;;;;;30.42;10.30;;;8.50;99.90;;;;;;5034781;28;20076;-36
2023/02/13 04:38:56;;;;;;;25.60;10.27;;;8.50;99.90;;;;;;5034719;28;20028;-35
2023/02/13 04:41:22;;;;;;;25.70;10.05;;;8.50;99.90;;;;;;5033535;28;20029;-33
2023/02/13 04:43:47;;;;;;;23.83;10.02;;;8.50;99.90;;;;;;5036114;28;20026;-34
2023/02/13 04:46:13;;;;;;;23.13;9.95;;;8.50;99.90;;;;;;5035885;28;20032;-34
2023/02/13 04:48:39;;;;;;;24.58;10.05;;;8.50;99.90;;;;;;5034420;28;20059;-33
2023/02/13 04:51:05;;;;;;;25.42;10.35;;;8.50;99.90;;;;;;5021027;28;20025;-34
2023/02/13 04:53:30;;;;;;;23.83;10.73;;;8.50;99.90;;;;;;5033347;28;20025;-36
2023/02/13 04:55:56;;;;;;;32.53;9.77;;;8.50;99.90;;;;;;5026533;28;20433;-32
2023/02/13 04:58:22;;;;;;;29.60;10.35;;;8.40;99.90;;;;;;5015824;28;20029;-35
2023/02/13 05:00:47;;;;;;;26.13;9.80;;;8.40;99.90;;;;;;5019132;28;20054;-35
2023/02/13 05:03:13;;;;;;;30.60;11.13;;;8.40;99.90;;;;;;5030773;28;20025;-35
2023/02/13 05:05:39;;;;;;;28.15;10.75;;;8.40;99.90;;;;;;5027603;28;20092;-35
2023/02/13 05:08:06;;;;;;;24.33;10.05;;;8.40;99.90;;;;;;5034439;28;20033;-46
2023/02/13 05:10:32;;;;;;;29.80;11.60;;;8.40;99.90;;;;;;5029885;28;20483;-48
2023/02/13 05:12:58;;;;;;;27.95;10.75;;;8.40;99.90;;;;;;5030422;28;20124;-48
2023/02/13 05:15:24;;;;;;;23.88;10.10;;;8.40;99.90;;;;;;5028829;28;20402;-47
2023/02/13 05:17:50;;;;;;;24.45;9.55;;;8.40;99.90;;;;;;5024872;28;20037;-48
2023/02/13 05:20:16;;;;;;;26.90;10.32;;;8.40;99.90;;;;;;5033330;28;20104;-48
2023/02/13 05:23:28;;;;;;;23.60;9.82;;;8.40;99.90;;;;;;5033227;28;20033;-49
2023/02/13 05:25:37;;;;;;;22.65;9.48;;;8.40;99.90;;;;;;5021065;28;20505;-48
2023/02/13 05:28:03;;;;;;;27.40;11.88;;;8.30;99.90;;;;;;5027005;28;20454;-48
2023/02/13 05:30:29;;;;;;;24.25;9.95;;;8.40;99.90;;;;;;5024514;28;20490;-49
2023/02/13 05:32:55;;;;;;;27.13;10.65;;;8.40;99.90;;;;;;5024812;28;20108;-34
2023/02/13 05:35:21;;;;;;;25.50;10.88;;;8.50;99.90;;;;;;5026835;28;20109;-31
2023/02/13 05:37:47;;;;;;;21.90;10.63;;;8.50;99.90;;;;;;5023550;28;20037;-36
2023/02/13 05:40:13;;;;;;;31.38;12.00;;;8.50;99.90;;;;;;5023331;28;20375;-33
2023/02/13 05:42:40;;;;;;;29.83;12.32;;;8.50;99.90;;;;;;5023698;28;20028;-35
2023/02/13 05:45:06;;;;;;;23.08;10.30;;;8.50;99.90;;;;;;5026757;28;20052;-37
2023/02/13 05:47:32;;;;;;;24.40;10.50;;;8.50;99.90;;;;;;5032070;28;20033;-34
2023/02/13 05:49:58;;;;;;;26.90;10.40;;;8.40;99.90;;;;;;5031162;28;20506;-31
2023/02/13 05:52:23;;;;;;;26.88;10.63;;;8.40;99.90;;;;;;5031574;28;20034;-37
2023/02/13 05:54:49;;;;;;;27.85;11.00;;;8.40;99.90;;;;;;5033225;28;20079;-38
2023/02/13 05:57:15;;;;;;;26.65;10.40;;;8.40;99.90;;;;;;5029635;28;20049;-40
2023/02/13 05:59:41;;;;;;;23.50;10.23;;;8.40;99.90;;;;;;5028129;28;20036;-36
2023/02/13 06:02:06;;;;;;;22.90;9.98;;;8.40;99.90;;;;;;5030482;28;20513;-38
2023/02/13 06:04:32;;;;;;;24.02;10.88;;;8.40;99.90;;;;;;5032481;28;20033;-38
2023/02/13 06:06:58;;;;;;;27.52;10.90;;;8.50;99.90;;;;;;5032093;28;20033;-39
2023/02/13 06:09:24;;;;;;;24.48;11.35;;;8.50;99.90;;;;;;5025191;28;20502;-34
2023/02/13 06:11:50;;;;;;;25.75;11.23;;;8.50;99.90;;;;;;5034152;28;20057;-38
2023/02/13 06:14:15;;;;;;;27.95;12.07;;;8.50;99.90;;;;;;5033905;28;20064;-35
2023/02/13 06:16:41;;;;;;;32.42;10.88;;;8.50;99.90;;;;;;5030813;28;20037;-37
2023/02/13 06:19:07;;;;;;;26.40;11.13;;;8.50;99.90;;;;;;5031596;28;20151;-35
2023/02/13 06:21:36;;;;;;;26.55;11.93;;;8.50;99.90;;;;;;5032641;28;20086;-37
2023/02/13 06:24:06;;;;;;;30.25;10.30;;;8.50;99.90;;;;;;5033923;28;20029;-36
2023/02/13 06:26:32;;;;;;;28.75;11.43;;;8.50;99.90;;;;;;5021799;28;20042;-35
2023/02/13 06:28:58;;;;;;;25.95;10.57;;;8.50;99.90;;;;;;5013791;28;20026;-36
2023/02/13 06:31:24;;;;;;;28.80;12.00;;;8.50;99.90;;;;;;5013845;28;20492;-37
2023/02/13 06:33:49;;;;;;;30.40;10.88;;;8.50;99.90;;;;;;5030364;28;20124;-38
2023/02/13 06:36:15;;;;;;;27.73;11.05;;;8.60;99.90;;;;;;5021669;28;20022;-35
2023/02/13 06:38:41;;;;;;;32.38;11.30;;;8.60;99.90;;;;;;5030878;28;20067;-35
2023/02/13 06:41:08;;;;;;;29.17;11.85;;;8.60;99.90;;;;;;5033531;28;20035;-33
2023/02/13 06:43:33;;;;;;;28.60;12.52;;;8.60;99.90;;;;;;5033394;28;20025;-36
2023/02/13 06:45:59;;;;;;;26.00;12.10;;;8.60;99.90;;;;;;5030745;28;20083;-35
2023/02/13 06:48:25;;;;;;;24.67;11.52;;;8.70;99.90;;;;;;5030084;28;20030;-33
2023/02/13 06:50:51;;;;;;;24.60;10.65;;;8.60;99.90;;;;;;5029533;28;20040;-30
2023/02/13 06:53:20;;;;;;;30.25;11.20;;;8.60;99.90;;;;;;5013814;28;20034;-33
2023/02/13 06:55:45;;;;;;;27.25;11.60;;;8.70;99.90;;;;;;5024037;28;20371;-36
2023/02/13 06:58:11;;;;;;;25.42;10.93;;;8.60;99.90;;;;;;5032097;28;20223;-35
2023/02/13 07:00:37;;;;;;;25.63;11.75;;;8.60;99.90;;;;;;5033160;28;20053;-37
2023/02/13 07:03:05;;;;;;;30.10;12.32;;;8.60;99.90;;;;;;5030073;28;20022;-38
2023/02/13 07:05:31;;;;;;;24.65;10.52;;;8.60;99.90;;;;;;5032095;28;20462;-31
2023/02/13 07:07:57;;;;;;;34.17;11.98;;;8.60;99.90;;;;;;5023273;28;20497;-36
2023/02/13 07:10:22;;;;;;;29.05;12.50;;;8.60;99.90;;;;;;5028139;28;20438;-35
2023/02/13 07:12:49;;;;;;;26.55;11.68;;;8.50;99.90;;;;;;5028992;28;20018;-39
2023/02/13 07:15:15;;;;;;;31.02;11.52;;;8.50;99.90;;;;;;5029368;28;20059;-38
2023/02/13 07:17:40;;;;;;;30.63;12.68;;;8.50;99.90;;;;;;5031719;28;20029;-39
2023/02/13 07:20:07;;;;;;;28.35;12.35;;;8.50;99.90;;;;;;5031375;28;20017;-36
2023/02/13 07:22:33;;;;;;;29.75;11.50;;;8.40;99.90;;;;;;5032213;28;20501;-37
2023/02/13 07:24:59;;;;;;;27.88;11.93;;;8.30;99.90;;;;;;5027279;28;20032;-49
2023/02/13 07:27:28;;;;;;;31.25;11.95;;;8.30;99.90;;;;;;5032915;28;20026;-46
2023/02/13 07:29:55;;;;;;;27.58;11.63;;;8.30;99.90;;;;;;5031455;28;20037;-48
2023/02/13 07:32:21;;;;;;;24.27;11.07;;;8.20;99.90;;;;;;5031365;28;20626;-48
2023/02/13 07:34:47;;;;;;;27.60;11.73;;;8.20;99.90;;;;;;5024346;28;21131;-47
2023/02/13 07:37:13;;;;;;;26.45;11.10;;;8.20;99.90;;;;;;5032979;28;20108;-46
2023/02/13 07:39:38;;;;;;;29.25;12.15;;;8.20;99.90;;;;;;5029314;28;20112;-48
2023/02/13 07:42:05;;;;;;;28.23;11.70;;;8.20;99.90;;;;;;5012833;28;20060;-48
2023/02/13 07:44:31;;;;;;;25.27;11.20;;;8.20;99.90;;;;;;5021672;28;20048;-47
2023/02/13 07:46:57;;;;;;;25.90;11.23;;;8.20;99.90;;;;;;5033979;28;20021;-48
2023/02/13 07:49:22;;;;;;;27.27;12.32;;;8.20;99.90;;;;;;5029647;28;20116;-46
2023/02/13 07:51:48;;;;;;;31.83;13.05;;;8.20;99.90;;;;;;5021381;28;20112;-48
2023/02/13 07:54:13;;;;;;;27.85;12.27;;;8.30;99.90;;;;;;5035760;28;20017;-51
2023/02/13 07:56:39;;;;;;;30.85;12.88;;;8.40;99.90;;;;;;5036553;28;20021;-44
2023/02/13 07:59:05;;;;;;;27.35;11.50;;;8.40;99.90;;;;;;5017167;28;20162;-39
2023/02/13 08:01:30;;;;;;;29.58;12.77;;;8.40;99.90;;;;;;5025433;28;20394;-37
2023/02/13 08:03:56;;;;;;;27.27;12.82;;;8.50;99.90;;;;;;5016214;28;20052;-38
2023/02/13 08:06:22;;;;;;;30.80;13.25;;;8.60;99.90;;;;;;5016771;28;20033;-33
2023/02/13 08:08:47;;;;;;;27.85;12.25;;;8.70;99.90;;;;;;5032947;28;20021;-38
2023/02/13 08:14:11;;;;;;;33.28;12.57;;;8.70;99.90;;;;;;5036190;28;20055;-36
2023/02/13 08:16:37;;;;;;;35.88;13.48;;;8.80;99.90;;;;;;5022633;28;20033;-47
2023/02/13 08:19:02;;;;;;;26.98;12.60;;;8.80;99.90;;;;;;5025845;28;20065;-48
2023/02/13 08:21:29;;;;;;;29.17;12.75;;;8.80;99.90;;;;;;5035010;28;20075;-48
2023/02/13 08:23:54;;;;;;;31.83;13.05;;;8.80;99.90;;;;;;5036196;28;20061;-47
2023/02/13 08:26:20;;;;;;;34.15;13.90;;;8.90;99.90;;;;;;5031169;28;20060;-46
2023/02/13 08:28:46;;;;;;;27.88;12.45;;;8.90;99.90;;;;;;5034703;28;20482;-47
2023/02/13 08:31:12;;;;;;;36.65;13.80;;;9.00;99.90;;;;;;5024598;28;20041;-38
2023/02/13 08:33:40;;;;;;;31.65;13.10;;;9.00;99.90;;;;;;5016100;28;20038;-34
2023/02/13 08:36:06;;;;;;;32.67;13.15;;;9.00;99.90;;;;;;5037723;28;20044;-35
2023/02/13 08:38:32;;;;;;;27.90;11.73;;;9.00;99.90;;;;;;5023914;28;20033;-37
2023/02/13 08:40:57;;;;;;;25.88;12.25;;;9.00;99.90;;;;;;5033576;28;20105;-31
2023/02/13 08:43:24;;;;;;;29.77;13.35;;;8.90;99.90;;;;;;5020779;28;20424;-35
2023/02/13 08:45:49;;;;;;;24.88;11.05;;;8.90;99.90;;;;;;5033018;28;20477;-37
2023/02/13 08:48:15;;;;;;;32.13;12.32;;;8.90;99.90;;;;;;5026567;28;20079;-36
2023/02/13 08:50:41;;;;;;;36.83;12.93;;;8.90;99.90;;;;;;5031157;28;20057;-36
2023/02/13 08:53:06;;;;;;;30.17;12.55;;;8.90;99.90;;;;;;5028961;28;20032;-37
2023/02/13 08:55:32;;;;;;;31.48;12.60;;;9.00;99.90;;;;;;5035427;28;20033;-35
2023/02/13 08:58:02;;;;;;;28.80;11.85;;;9.00;99.90;;;;;;5021927;28;20486;-36
2023/02/13 09:00:28;;;;;;;29.70;13.27;;;9.10;99.90;;;;;;5028867;28;20386;-37
2023/02/13 09:02:54;;;;;;;29.35;11.77;;;9.20;99.90;;;;;;5023901;28;20032;-33
2023/02/13 09:05:20;;;;;;;28.85;11.77;;;9.20;99.90;;;;;;5021886;28;20478;-36
2023/02/13 09:07:45;;;;;;;24.73;11.77;;;9.30;99.90;;;;;;5026947;28;20116;-36
2023/02/13 09:10:11;;;;;;;28.15;12.43;;;9.40;99.90;;;;;;5015922;28;20033;-48
2023/02/13 09:12:37;;;;;;;26.70;12.13;;;9.40;99.90;;;;;;5015059;28;20395;-47
2023/02/13 09:15:04;;;;;;;26.08;12.18;;;9.50;99.90;;;;;;5034338;28;20025;-48
2023/02/13 09:17:30;;;;;;;27.35;12.45;;;9.50;99.90;;;;;;5032492;28;20029;-48
2023/02/13 09:19:55;;;;;;;25.50;11.07;;;9.50;99.90;;;;;;5027993;28;20033;-48
2023/02/13 09:22:21;;;;;;;27.00;11.27;;;9.50;99.90;;;;;;5025866;28;20033;-47
2023/02/13 09:24:46;;;;;;;26.02;12.07;;;9.50;99.90;;;;;;5023323;28;20025;-48
2023/02/13 09:27:12;;;;;;;25.70;11.85;;;9.60;99.90;;;;;;5026051;28;20042;-38
2023/02/13 09:29:38;;;;;;;30.70;13.13;;;9.70;99.90;;;;;;5017677;28;20450;-37
2023/02/13 09:32:04;;;;;;;27.88;12.05;;;9.90;99.90;;;;;;5019479;28;20038;-38
2023/02/13 09:34:30;;;;;;;28.02;12.30;;;9.90;99.90;;;;;;5030828;28;20033;-32
2023/02/13 09:36:56;;;;;;;25.52;11.68;;;9.80;99.90;;;;;;5019908;28;20501;-36
2023/02/13 09:39:21;;;;;;;28.77;12.48;;;9.80;99.90;;;;;;5016636;28;20490;-38
2023/02/13 09:41:50;;;;;;;25.50;10.48;;;9.80;99.90;;;;;;5027106;28;20101;-38
2023/02/13 09:44:42;;;;;;;33.55;11.77;;;9.80;99.90;;;;;;5017452;28;20077;-36
2023/02/13 09:47:33;;;;;;;29.70;11.70;;;9.80;99.90;;;;;;5026502;28;20113;-37
2023/02/13 09:50:05;;;;;;;28.75;11.70;;;9.80;99.90;;;;;;5025617;28;20572;-37
2023/02/13 09:52:36;;;;;;;31.40;12.45;;;9.90;99.90;;;;;;5019349;28;20026;-30
2023/02/13 09:55:12;;;;;;;26.25;11.52;;;10.00;99.90;;;;;;5019952;28;20029;-40
2023/02/13 09:58:00;;;;;;;23.67;11.05;;;10.10;99.90;;;;;;5033298;28;20033;-37
2023/02/13 10:00:37;;;;;;;24.20;11.35;;;10.00;99.90;;;;;;5026120;28;20034;-37
2023/02/13 10:03:22;;;;;;;25.27;11.65;;;10.00;99.90;;;;;;5029170;28;20026;-38
2023/02/13 10:06:05;;;;;;;28.80;10.98;;;10.00;99.90;;;;;;5025001;28;20375;-38
2023/02/13 10:08:37;;;;;;;24.20;11.05;;;10.10;99.90;;;;;;5021391;28;20496;-36
2023/02/13 10:11:14;;;;;;;27.80;11.05;;;10.20;99.90;;;;;;5032253;28;20033;-35
2023/02/13 10:14:28;;;;;;;26.48;10.73;;;10.30;99.90;;;;;;5029433;28;20483;-36
2023/02/13 10:17:01;;;;;;;23.73;11.13;;;10.40;99.90;;;;;;5011589;28;20113;-34
2023/02/13 10:19:32;;;;;;;24.92;11.10;;;10.40;99.90;;;;;;5011154;28;20029;-36
2023/02/13 10:22:03;;;;;;;22.15;9.27;;;10.40;99.90;;;;;;5019153;28;20041;-36
2023/02/13 10:24:33;;;;;;;25.60;11.45;;;10.40;99.90;;;;;;5025697;28;20474;-35
2023/02/13 10:27:08;;;;;;;24.55;11.05;;;10.50;99.90;;;;;;5032603;28;20116;-38
2023/02/13 10:30:04;;;;;;;23.98;11.05;;;10.50;99.90;;;;;;5021043;28;20030;-34
2023/02/13 10:33:09;;;;;;;23.48;10.38;;;10.40;99.90;;;;;;5024925;28;20084;-36
2023/02/13 10:35:37;;;;;;;27.65;12.00;;;10.60;99.90;;;;;;5024535;28;20030;-38
2023/02/13 10:38:15;;;;;;;24.20;10.82;;;10.60;99.90;;;;;;5028091;28;20026;-34
2023/02/13 10:40:54;;;;;;;25.83;12.30;;;10.60;99.90;;;;;;5031522;28;20029;-35
2023/02/13 10:43:26;;;;;;;24.73;10.32;;;10.60;99.90;;;;;;5028037;28;20144;-38
2023/02/13 10:46:21;;;;;;;25.27;10.98;;;10.70;99.90;;;;;;5025150;28;20021;-34
2023/02/13 10:49:03;;;;;;;22.38;11.70;;;10.70;99.90;;;;;;5030793;28;20041;-40
2023/02/13 10:51:34;;;;;;;22.80;10.95;;;10.70;99.90;;;;;;5027663;28;20033;-40
2023/02/13 10:54:46;;;;;;;28.52;11.27;;;10.70;99.90;;;;;;5013816;28;20022;-35
2023/02/13 10:57:35;;;;;;;20.90;8.85;;;10.80;99.90;;;;;;5031773;28;20041;-41
2023/02/13 11:00:12;;;;;;;19.38;9.60;;;10.90;99.90;;;;;;5029617;28;20128;-40
2023/02/13 11:02:40;;;;;;;23.05;9.43;;;10.90;99.90;;;;;;5029512;28;20065;-38
2023/02/13 11:05:22;;;;;;;21.88;9.85;;;11.10;99.90;;;;;;5030187;28;20033;-41
2023/02/13 11:07:48;;;;;;;20.08;9.85;;;11.10;99.90;;;;;;5029386;28;20036;-42
2023/02/13 11:10:23;;;;;;;17.25;9.10;;;11.20;99.90;;;;;;5029861;28;20092;-40
2023/02/13 11:12:49;;;;;;;20.58;9.85;;;11.20;99.90;;;;;;5026913;28;20037;-41
2023/02/13 11:15:24;;;;;;;21.00;10.02;;;11.30;99.90;;;;;;5028688;28;20037;-39
2023/02/13 11:17:53;;;;;;;21.40;10.35;;;11.30;99.90;;;;;;5022963;28;20498;-38
2023/02/13 11:20:24;;;;;;;;;;;11.40;99.90;;;;;;5020992;28;21563;-40
2023/02/13 11:22:49;;;;;;;21.20;9.45;;;11.30;99.90;;;;;;5013088;28;19972;-40
2023/02/13 11:25:27;;;;;;;20.00;9.00;;;11.30;99.90;;;;;;5019142;28;20045;-44
2023/02/13 11:28:08;;;;;;;21.77;10.38;;;11.30;99.90;;;;;;5032087;28;20036;-40
2023/02/13 11:33:16;;;;;;;22.05;10.15;;;11.40;99.90;;;;;;5069930;28;20941;-39
2023/02/13 11:35:41;;;;;;;20.58;9.10;;;11.60;99.90;;;;;;5057102;28;20033;-39
2023/02/13 11:38:12;;;;;;;18.88;9.50;;;11.60;99.90;;;;;;5055044;28;20397;-40
2023/02/13 11:40:38;;;;;;;21.50;9.43;;;11.70;99.90;;;;;;5048575;28;20484;-40
2023/02/13 11:43:07;;;;;;;21.98;9.63;;;11.80;99.90;;;;;;5053759;28;20108;-36
2023/02/13 11:45:33;;;;;;;21.70;9.43;;;11.80;99.90;;;;;;5060330;28;20362;-39
2023/02/13 11:47:59;;;;;;;21.15;9.73;;;11.80;99.90;;;;;;5066298;28;20083;-39
2023/02/13 11:50:33;;;;;;;22.08;10.15;;;11.80;99.90;;;;;;5052383;28;20508;-37
2023/02/13 11:52:59;;;;;;;20.60;8.90;;;11.80;99.90;;;;;;5049573;28;20029;-39
2023/02/13 11:55:32;;;;;;;22.08;10.90;;;11.90;99.90;;;;;;5050011;28;20574;-36
2023/02/13 11:58:10;;;;;;;20.30;8.90;;;12.00;99.90;;;;;;5048816;28;20036;-38
2023/02/13 12:00:38;;;;;;;22.60;9.18;;;12.00;99.90;;;;;;5048350;28;20047;-38
2023/02/13 12:03:30;;;;;;;22.00;9.10;;;12.10;99.90;;;;;;5063903;28;20115;-39
2023/02/13 12:06:15;;;;;;;17.95;9.15;;;12.20;99.90;;;;;;5059189;28;20043;-37
2023/02/13 12:08:47;;;;;;;20.20;9.27;;;12.20;99.90;;;;;;5048567;28;20045;-40
2023/02/13 12:11:24;;;;;;;19.25;8.55;;;12.10;99.90;;;;;;5044050;28;20142;-39
2023/02/13 12:13:51;;;;;;;19.05;8.93;;;12.20;99.90;;;;;;5049525;28;20120;-39
2023/02/13 12:16:26;;;;;;;19.95;9.60;;;12.20;99.90;;;;;;5039806;28;20564;-36
2023/02/13 12:18:59;;;;;;;20.77;9.75;;;12.30;99.90;;;;;;5046738;28;20053;-40
2023/02/13 12:21:54;;;;;;;22.02;9.68;;;12.30;99.90;;;;;;5035625;28;20030;-40
2023/02/13 12:24:29;;;;;;;18.45;9.30;;;12.20;99.90;;;;;;5040566;28;20039;-40
2023/02/13 12:27:23;;;;;;;22.83;8.80;;;12.30;99.90;;;;;;5042751;28;20036;-33
2023/02/13 12:30:15;;;;;;;17.02;8.40;;;12.40;99.90;;;;;;5029025;28;20037;-35
2023/02/13 12:32:55;;;;;;;21.20;9.95;;;12.60;99.90;;;;;;5037179;28;20082;-30
2023/02/13 12:35:51;;;;;;;19.00;9.45;;;12.60;99.90;;;;;;5029947;28;20033;-62
2023/02/13 12:38:51;;;;;;;21.67;9.00;;;12.60;99.90;;;;;;5047297;28;20025;-40
2023/02/13 12:41:23;;;;;;;22.98;9.73;;;12.60;99.90;;;;;;5040064;28;20083;-39
2023/02/13 12:44:21;;;;;;;22.60;9.52;;;12.70;99.90;;;;;;5037956;28;20036;-42
2023/02/13 12:47:11;;;;;;;24.20;10.85;;;12.70;99.90;;;;;;5027025;28;20139;-44
2023/02/13 12:49:52;;;;;;;19.38;7.82;;;12.70;99.90;;;;;;5035887;28;20481;-41
2023/02/13 12:52:39;;;;;;;22.58;9.85;;;12.80;99.90;;;;;;5024367;28;20038;-39
2023/02/13 12:55:23;;;;;;;18.38;9.88;;;12.70;99.90;;;;;;5025922;28;20542;-41
2023/02/13 12:57:55;;;;;;;19.67;9.65;;;12.70;99.90;;;;;;5037702;28;20029;-40
2023/02/13 13:00:33;;;;;;;17.60;8.82;;;12.60;99.90;;;;;;5031222;28;20561;-39
2023/02/13 13:03:07;;;;;;;19.63;9.40;;;12.50;99.90;;;;;;5030728;28;20022;-38
2023/02/13 13:05:55;;;;;;;18.23;9.35;;;12.50;99.90;;;;;;5030803;28;20032;-40
2023/02/13 13:08:24;;;;;;;;;;;12.60;99.90;;;;;;5020688;28;20030;-40
2023/02/13 13:11:08;;;;;;;20.75;8.27;;;12.60;99.90;;;;;;5041687;28;19915;-41
2023/02/13 13:13:43;;;;;;;21.23;9.60;;;12.70;99.90;;;;;;5052998;28;20029;-39
2023/02/13 13:16:17;;;;;;;20.38;9.40;;;12.80;99.90;;;;;;5037840;28;20441;-40
2023/02/13 13:18:43;;;;;;;21.08;9.40;;;12.90;99.90;;;;;;5033999;28;20025;-39
2023/02/13 13:21:14;;;;;;;16.38;8.45;;;13.10;99.90;;;;;;5032128;28;20406;-39
2023/02/13 13:23:53;;;;;;;21.35;10.23;;;13.10;99.90;;;;;;5033704;28;20052;-32
2023/02/13 13:26:39;;;;;;;16.77;9.32;;;13.30;99.90;;;;;;5034761;28;20044;-33
2023/02/13 13:29:18;;;;;;;21.40;10.55;;;13.30;99.90;;;;;;5034884;28;20039;-33
2023/02/13 13:31:53;;;;;;;20.20;9.18;;;13.40;99.90;;;;;;5032305;28;20041;-30
2023/02/13 13:34:23;;;;;;;21.63;11.15;;;13.40;99.90;;;;;;5023974;28;20021;-30
2023/02/13 13:37:26;;;;;;;24.90;10.25;;;13.40;99.90;;;;;;5029162;28;20033;-33
2023/02/13 13:39:52;;;;;;;19.27;9.52;;;13.50;99.90;;;;;;5035643;28;20099;-29
2023/02/13 13:42:36;;;;;;;22.27;10.20;;;13.40;99.90;;;;;;5020365;28;20589;-32
2023/02/13 13:45:35;;;;;;;17.70;9.02;;;13.50;99.90;;;;;;5033787;28;20030;-37
2023/02/13 13:48:23;;;;;;;21.50;9.35;;;13.50;99.90;;;;;;5034274;28;20044;-31